sensor_id;sensor_type;location;lat;lon;timestamp;pressure;altitude;pressure_sealevel;temperature;humidity
68179;BME280;54998;42.656;23.382;2022-11-20T00:01:45;94195.44;;;13.14;72.10
68179;BME280;54998;42.656;23.382;2022-11-20T00:04:11;94200.78;;;13.05;72.43
68179;BME280;54998;42.656;23.382;2022-11-20T00:06:37;94217.03;;;12.82;73.64
68179;BME280;54998;42.656;23.382;2022-11-20T00:09:03;94222.63;;;12.86;73.21
68179;BME280;54998;42.656;23.382;2022-11-20T00:11:31;94205.31;;;13.03;72.65
68179;BME280;54998;42.656;23.382;2022-11-20T00:16:32;94185.41;;;13.43;69.88
68179;BME280;54998;42.656;23.382;2022-11-20T00:18:58;94189.78;;;13.57;69.07
68179;BME280;54998;42.656;23.382;2022-11-20T00:21:26;94208.53;;;13.51;69.55
68179;BME280;54998;42.656;23.382;2022-11-20T00:23:53;94178.59;;;13.50;69.62
68179;BME280;54998;42.656;23.382;2022-11-20T00:26:20;94162.59;;;13.54;69.07
68179;BME280;54998;42.656;23.382;2022-11-20T00:28:51;94193.25;;;13.49;69.30
68179;BME280;54998;42.656;23.382;2022-11-20T00:31:17;94182.31;;;13.47;69.05
68179;BME280;54998;42.656;23.382;2022-11-20T00:33:43;94160.00;;;13.54;68.66
68179;BME280;54998;42.656;23.382;2022-11-20T00:36:10;94180.63;;;13.54;68.66
68179;BME280;54998;42.656;23.382;2022-11-20T00:38:36;94164.41;;;13.69;64.77
68179;BME280;54998;42.656;23.382;2022-11-20T00:41:05;94182.84;;;13.95;64.09
68179;BME280;54998;42.656;23.382;2022-11-20T00:43:30;94176.19;;;14.01;64.57
68179;BME280;54998;42.656;23.382;2022-11-20T00:46:00;94172.44;;;14.18;62.73
68179;BME280;54998;42.656;23.382;2022-11-20T00:48:26;94180.44;;;14.24;62.81
68179;BME280;54998;42.656;23.382;2022-11-20T00:50:52;94190.66;;;14.32;63.33
68179;BME280;54998;42.656;23.382;2022-11-20T00:53:18;94171.63;;;14.18;64.70
68179;BME280;54998;42.656;23.382;2022-11-20T00:55:52;94192.28;;;14.03;66.05
68179;BME280;54998;42.656;23.382;2022-11-20T00:58:18;94206.84;;;14.11;63.49
68179;BME280;54998;42.656;23.382;2022-11-20T01:00:43;94194.31;;;14.23;63.69
68179;BME280;54998;42.656;23.382;2022-11-20T01:03:09;94180.19;;;14.33;62.84
68179;BME280;54998;42.656;23.382;2022-11-20T01:05:35;94202.66;;;14.39;61.85
68179;BME280;54998;42.656;23.382;2022-11-20T01:08:01;94202.75;;;14.76;59.61
68179;BME280;54998;42.656;23.382;2022-11-20T01:10:26;94167.84;;;15.02;58.62
68179;BME280;54998;42.656;23.382;2022-11-20T01:12:51;94159.06;;;14.81;60.67
68179;BME280;54998;42.656;23.382;2022-11-20T01:15:37;94170.50;;;14.72;61.19
68179;BME280;54998;42.656;23.382;2022-11-20T01:18:02;94172.50;;;14.55;61.24
68179;BME280;54998;42.656;23.382;2022-11-20T01:20:27;94156.63;;;14.73;59.37
68179;BME280;54998;42.656;23.382;2022-11-20T01:22:53;94170.34;;;14.95;59.98
68179;BME280;54998;42.656;23.382;2022-11-20T01:25:18;94175.50;;;14.73;60.26
68179;BME280;54998;42.656;23.382;2022-11-20T01:27:43;94147.09;;;14.95;59.00
68179;BME280;54998;42.656;23.382;2022-11-20T01:30:09;94156.66;;;15.16;58.27
68179;BME280;54998;42.656;23.382;2022-11-20T01:32:35;94157.56;;;15.08;58.82
68179;BME280;54998;42.656;23.382;2022-11-20T01:35:00;94140.22;;;15.02;59.11
68179;BME280;54998;42.656;23.382;2022-11-20T01:37:25;94142.72;;;14.95;59.11
68179;BME280;54998;42.656;23.382;2022-11-20T01:39:51;94134.38;;;14.93;59.20
68179;BME280;54998;42.656;23.382;2022-11-20T01:42:16;94130.94;;;14.86;59.94
68179;BME280;54998;42.656;23.382;2022-11-20T01:45:00;94127.47;;;14.57;61.20
68179;BME280;54998;42.656;23.382;2022-11-20T01:47:44;94141.06;;;14.51;62.09
68179;BME280;54998;42.656;23.382;2022-11-20T01:50:18;94135.38;;;14.41;62.48
68179;BME280;54998;42.656;23.382;2022-11-20T01:52:55;94114.72;;;14.41;61.72
68179;BME280;54998;42.656;23.382;2022-11-20T01:55:28;94138.09;;;14.69;60.14
68179;BME280;54998;42.656;23.382;2022-11-20T01:57:55;94120.19;;;14.68;60.82
68179;BME280;54998;42.656;23.382;2022-11-20T02:00:21;94121.22;;;14.88;60.02
68179;BME280;54998;42.656;23.382;2022-11-20T02:02:54;94114.94;;;14.76;60.76
68179;BME280;54998;42.656;23.382;2022-11-20T02:05:41;94120.13;;;14.61;61.48
68179;BME280;54998;42.656;23.382;2022-11-20T02:08:10;94131.91;;;14.49;61.71
68179;BME280;54998;42.656;23.382;2022-11-20T02:10:35;94130.13;;;14.49;62.30
68179;BME280;54998;42.656;23.382;2022-11-20T02:13:01;94134.59;;;14.26;63.14
68179;BME280;54998;42.656;23.382;2022-11-20T02:15:46;94153.66;;;13.95;64.29
68179;BME280;54998;42.656;23.382;2022-11-20T02:18:14;94142.44;;;14.03;63.75
68179;BME280;54998;42.656;23.382;2022-11-20T02:20:45;94139.56;;;14.57;57.48
68179;BME280;54998;42.656;23.382;2022-11-20T02:25:40;94146.38;;;14.79;60.55
68179;BME280;54998;42.656;23.382;2022-11-20T02:28:07;94143.59;;;15.03;56.36
68179;BME280;54998;42.656;23.382;2022-11-20T02:30:32;94129.91;;;15.30;56.72
68179;BME280;54998;42.656;23.382;2022-11-20T02:32:58;94141.25;;;15.29;57.76
68179;BME280;54998;42.656;23.382;2022-11-20T02:37:52;94145.81;;;15.06;58.80
68179;BME280;54998;42.656;23.382;2022-11-20T02:40:18;94150.47;;;14.74;60.07
68179;BME280;54998;42.656;23.382;2022-11-20T02:42:44;94149.91;;;14.78;58.40
68179;BME280;54998;42.656;23.382;2022-11-20T02:45:09;94155.31;;;14.98;57.92
68179;BME280;54998;42.656;23.382;2022-11-20T02:47:35;94150.31;;;14.97;57.22
68179;BME280;54998;42.656;23.382;2022-11-20T02:50:01;94154.97;;;15.08;57.53
68179;BME280;54998;42.656;23.382;2022-11-20T02:52:26;94151.22;;;15.32;54.38
68179;BME280;54998;42.656;23.382;2022-11-20T02:54:52;94156.38;;;15.54;53.79
68179;BME280;54998;42.656;23.382;2022-11-20T02:57:17;94162.53;;;15.74;53.11
68179;BME280;54998;42.656;23.382;2022-11-20T02:59:43;94188.44;;;15.81;53.78
68179;BME280;54998;42.656;23.382;2022-11-20T03:02:08;94180.78;;;16.36;51.63
68179;BME280;54998;42.656;23.382;2022-11-20T03:04:34;94182.44;;;16.50;51.15
68179;BME280;54998;42.656;23.382;2022-11-20T03:06:59;94174.84;;;16.90;50.00
68179;BME280;54998;42.656;23.382;2022-11-20T03:09:25;94202.09;;;16.79;50.46
68179;BME280;54998;42.656;23.382;2022-11-20T03:11:50;94196.59;;;16.96;50.01
68179;BME280;54998;42.656;23.382;2022-11-20T03:14:15;94197.56;;;16.88;50.36
68179;BME280;54998;42.656;23.382;2022-11-20T03:16:41;94186.44;;;17.08;49.78
68179;BME280;54998;42.656;23.382;2022-11-20T03:19:06;94179.44;;;16.95;49.93
68179;BME280;54998;42.656;23.382;2022-11-20T03:21:35;94188.63;;;17.04;49.79
68179;BME280;54998;42.656;23.382;2022-11-20T03:24:01;94208.59;;;17.17;49.27
68179;BME280;54998;42.656;23.382;2022-11-20T03:26:27;94199.03;;;17.17;49.24
68179;BME280;54998;42.656;23.382;2022-11-20T03:28:55;94189.81;;;16.95;50.29
68179;BME280;54998;42.656;23.382;2022-11-20T03:31:24;94190.03;;;17.07;49.69
68179;BME280;54998;42.656;23.382;2022-11-20T03:33:50;94202.00;;;17.08;49.98
68179;BME280;54998;42.656;23.382;2022-11-20T03:36:16;94210.56;;;17.01;50.02
68179;BME280;54998;42.656;23.382;2022-11-20T03:38:43;94197.09;;;16.78;50.13
68179;BME280;54998;42.656;23.382;2022-11-20T03:41:19;94213.31;;;16.93;50.53
68179;BME280;54998;42.656;23.382;2022-11-20T03:43:59;94218.50;;;16.93;50.10
68179;BME280;54998;42.656;23.382;2022-11-20T03:46:25;94210.53;;;16.95;50.13
68179;BME280;54998;42.656;23.382;2022-11-20T03:48:52;94216.72;;;16.94;50.00
68179;BME280;54998;42.656;23.382;2022-11-20T03:51:20;94220.09;;;16.88;49.98
68179;BME280;54998;42.656;23.382;2022-11-20T03:53:47;94226.53;;;17.12;49.15
68179;BME280;54998;42.656;23.382;2022-11-20T03:56:15;94217.78;;;17.26;48.38
68179;BME280;54998;42.656;23.382;2022-11-20T03:58:42;94209.63;;;17.29;48.49
68179;BME280;54998;42.656;23.382;2022-11-20T04:01:15;94203.84;;;17.20;48.65
68179;BME280;54998;42.656;23.382;2022-11-20T04:03:42;94197.81;;;17.07;49.11
68179;BME280;54998;42.656;23.382;2022-11-20T04:06:16;94210.22;;;17.18;48.72
68179;BME280;54998;42.656;23.382;2022-11-20T04:08:42;94198.06;;;17.25;48.83
68179;BME280;54998;42.656;23.382;2022-11-20T04:11:16;94211.19;;;17.17;48.93
68179;BME280;54998;42.656;23.382;2022-11-20T04:13:47;94214.19;;;17.07;49.13
68179;BME280;54998;42.656;23.382;2022-11-20T04:16:13;94200.59;;;16.98;49.21
68179;BME280;54998;42.656;23.382;2022-11-20T04:18:39;94204.56;;;16.88;49.60
68179;BME280;54998;42.656;23.382;2022-11-20T04:21:05;94225.28;;;16.88;49.29
68179;BME280;54998;42.656;23.382;2022-11-20T04:23:31;94224.50;;;16.94;49.07
68179;BME280;54998;42.656;23.382;2022-11-20T04:26:09;94229.94;;;17.12;48.44
68179;BME280;54998;42.656;23.382;2022-11-20T04:28:34;94221.94;;;17.07;48.81
68179;BME280;54998;42.656;23.382;2022-11-20T04:31:08;94233.69;;;16.96;49.10
68179;BME280;54998;42.656;23.382;2022-11-20T04:33:35;94230.09;;;17.04;48.84
68179;BME280;54998;42.656;23.382;2022-11-20T04:36:03;94236.66;;;17.00;49.29
68179;BME280;54998;42.656;23.382;2022-11-20T04:38:29;94231.50;;;17.07;49.05
68179;BME280;54998;42.656;23.382;2022-11-20T04:41:02;94233.91;;;17.08;49.34
68179;BME280;54998;42.656;23.382;2022-11-20T04:43:28;94236.31;;;17.10;49.00
68179;BME280;54998;42.656;23.382;2022-11-20T04:45:55;94231.88;;;16.97;49.92
68179;BME280;54998;42.656;23.382;2022-11-20T04:48:21;94226.06;;;16.81;50.67
68179;BME280;54998;42.656;23.382;2022-11-20T04:50:47;94214.75;;;17.02;50.10
68179;BME280;54998;42.656;23.382;2022-11-20T04:53:12;94212.53;;;16.99;50.34
68179;BME280;54998;42.656;23.382;2022-11-20T04:55:38;94218.13;;;16.90;50.75
68179;BME280;54998;42.656;23.382;2022-11-20T04:58:03;94224.53;;;17.00;50.41
68179;BME280;54998;42.656;23.382;2022-11-20T05:00:28;94206.56;;;16.99;49.96
68179;BME280;54998;42.656;23.382;2022-11-20T05:02:54;94205.19;;;17.10;50.12
68179;BME280;54998;42.656;23.382;2022-11-20T05:05:19;94197.16;;;16.91;50.26
68179;BME280;54998;42.656;23.382;2022-11-20T05:07:45;94199.63;;;16.64;51.52
68179;BME280;54998;42.656;23.382;2022-11-20T05:10:10;94205.81;;;16.57;51.91
68179;BME280;54998;42.656;23.382;2022-11-20T05:12:35;94217.13;;;16.56;52.49
68179;BME280;54998;42.656;23.382;2022-11-20T05:15:01;94217.13;;;16.56;53.06
68179;BME280;54998;42.656;23.382;2022-11-20T05:17:26;94208.31;;;16.43;53.67
68179;BME280;54998;42.656;23.382;2022-11-20T05:19:51;94195.97;;;16.46;53.67
68179;BME280;54998;42.656;23.382;2022-11-20T05:22:17;94206.97;;;16.19;56.40
68179;BME280;54998;42.656;23.382;2022-11-20T05:24:42;94201.81;;;15.91;58.11
68179;BME280;54998;42.656;23.382;2022-11-20T05:27:07;94188.78;;;15.78;58.44
68179;BME280;54998;42.656;23.382;2022-11-20T05:29:33;94182.94;;;15.69;59.41
68179;BME280;54998;42.656;23.382;2022-11-20T05:31:58;94185.03;;;15.59;60.22
68179;BME280;54998;42.656;23.382;2022-11-20T05:34:23;94170.16;;;15.39;61.00
68179;BME280;54998;42.656;23.382;2022-11-20T05:36:49;94203.41;;;15.43;60.78
68179;BME280;54998;42.656;23.382;2022-11-20T05:39:14;94190.16;;;15.31;61.45
68179;BME280;54998;42.656;23.382;2022-11-20T05:41:40;94195.91;;;15.26;61.47
68179;BME280;54998;42.656;23.382;2022-11-20T05:44:05;94173.69;;;15.32;61.22
68179;BME280;54998;42.656;23.382;2022-11-20T05:46:31;94192.03;;;15.37;61.27
68179;BME280;54998;42.656;23.382;2022-11-20T05:48:57;94191.84;;;15.38;61.06
68179;BME280;54998;42.656;23.382;2022-11-20T05:51:23;94166.44;;;15.42;60.53
68179;BME280;54998;42.656;23.382;2022-11-20T05:53:48;94146.59;;;15.49;60.35
68179;BME280;54998;42.656;23.382;2022-11-20T05:56:17;94154.28;;;15.43;60.58
68179;BME280;54998;42.656;23.382;2022-11-20T05:58:43;94178.97;;;15.45;59.94
68179;BME280;54998;42.656;23.382;2022-11-20T06:03:34;94165.88;;;15.47;60.03
68179;BME280;54998;42.656;23.382;2022-11-20T06:06:00;94169.19;;;15.40;60.70
68179;BME280;54998;42.656;23.382;2022-11-20T06:08:25;94166.59;;;15.40;60.60
68179;BME280;54998;42.656;23.382;2022-11-20T06:10:50;94168.88;;;15.29;60.91
68179;BME280;54998;42.656;23.382;2022-11-20T06:13:16;94171.84;;;15.26;61.30
68179;BME280;54998;42.656;23.382;2022-11-20T06:15:41;94176.28;;;15.32;61.17
68179;BME280;54998;42.656;23.382;2022-11-20T06:18:06;94184.25;;;15.37;60.72
68179;BME280;54998;42.656;23.382;2022-11-20T06:20:32;94184.81;;;15.54;59.81
68179;BME280;54998;42.656;23.382;2022-11-20T06:22:57;94186.00;;;15.73;58.94
68179;BME280;54998;42.656;23.382;2022-11-20T06:25:23;94202.31;;;15.73;58.34
68179;BME280;54998;42.656;23.382;2022-11-20T06:27:48;94200.59;;;15.66;58.63
68179;BME280;54998;42.656;23.382;2022-11-20T06:30:13;94194.75;;;15.78;58.55
68179;BME280;54998;42.656;23.382;2022-11-20T06:32:39;94202.72;;;15.77;58.77
68179;BME280;54998;42.656;23.382;2022-11-20T06:35:04;94201.22;;;15.89;58.71
68179;BME280;54998;42.656;23.382;2022-11-20T06:37:30;94202.03;;;15.90;58.86
68179;BME280;54998;42.656;23.382;2022-11-20T06:39:55;94197.88;;;15.95;58.57
68179;BME280;54998;42.656;23.382;2022-11-20T06:42:21;94190.59;;;16.06;58.08
68179;BME280;54998;42.656;23.382;2022-11-20T06:44:46;94199.81;;;15.87;58.90
68179;BME280;54998;42.656;23.382;2022-11-20T06:47:11;94202.13;;;16.03;57.63
68179;BME280;54998;42.656;23.382;2022-11-20T06:49:37;94198.59;;;16.17;57.15
68179;BME280;54998;42.656;23.382;2022-11-20T06:52:04;94199.78;;;16.15;57.16
68179;BME280;54998;42.656;23.382;2022-11-20T06:54:29;94210.66;;;16.32;56.38
68179;BME280;54998;42.656;23.382;2022-11-20T06:56:54;94203.94;;;16.44;55.85
68179;BME280;54998;42.656;23.382;2022-11-20T06:59:20;94207.81;;;16.61;55.66
68179;BME280;54998;42.656;23.382;2022-11-20T07:01:46;94211.56;;;16.59;56.41
68179;BME280;54998;42.656;23.382;2022-11-20T07:04:11;94226.94;;;16.67;55.79
68179;BME280;54998;42.656;23.382;2022-11-20T07:06:37;94225.25;;;16.81;55.48
68179;BME280;54998;42.656;23.382;2022-11-20T07:09:02;94227.66;;;16.89;55.02
68179;BME280;54998;42.656;23.382;2022-11-20T07:11:28;94233.84;;;16.88;55.37
68179;BME280;54998;42.656;23.382;2022-11-20T07:13:53;94218.31;;;16.95;55.40
68179;BME280;54998;42.656;23.382;2022-11-20T07:16:19;94215.09;;;16.86;55.08
68179;BME280;54998;42.656;23.382;2022-11-20T07:18:44;94219.50;;;16.92;54.79
68179;BME280;54998;42.656;23.382;2022-11-20T07:21:10;94232.03;;;16.89;53.35
68179;BME280;54998;42.656;23.382;2022-11-20T07:23:36;94238.25;;;16.88;53.71
68179;BME280;54998;42.656;23.382;2022-11-20T07:26:06;94232.44;;;16.86;53.64
68179;BME280;54998;42.656;23.382;2022-11-20T07:28:32;94231.66;;;16.85;53.94
68179;BME280;54998;42.656;23.382;2022-11-20T07:30:57;94231.19;;;16.75;52.48
68179;BME280;54998;42.656;23.382;2022-11-20T07:33:23;94223.16;;;16.70;52.59
68179;BME280;54998;42.656;23.382;2022-11-20T07:35:48;94227.72;;;16.61;52.84
68179;BME280;54998;42.656;23.382;2022-11-20T07:38:14;94234.63;;;16.47;53.49
68179;BME280;54998;42.656;23.382;2022-11-20T07:40:39;94226.38;;;16.72;53.07
68179;BME280;54998;42.656;23.382;2022-11-20T07:43:05;94233.16;;;16.73;53.46
68179;BME280;54998;42.656;23.382;2022-11-20T07:45:30;94231.00;;;16.76;52.75
68179;BME280;54998;42.656;23.382;2022-11-20T07:47:55;94233.59;;;16.76;53.07
68179;BME280;54998;42.656;23.382;2022-11-20T07:50:21;94229.38;;;16.75;53.09
68179;BME280;54998;42.656;23.382;2022-11-20T07:52:47;94226.38;;;16.72;53.22
68179;BME280;54998;42.656;23.382;2022-11-20T07:55:12;94233.75;;;16.68;53.31
68179;BME280;54998;42.656;23.382;2022-11-20T07:57:38;94229.75;;;16.66;53.66
68179;BME280;54998;42.656;23.382;2022-11-20T08:00:05;94238.69;;;16.63;53.67
68179;BME280;54998;42.656;23.382;2022-11-20T08:02:32;94241.06;;;16.58;54.16
68179;BME280;54998;42.656;23.382;2022-11-20T08:04:57;94233.50;;;16.63;54.00
68179;BME280;54998;42.656;23.382;2022-11-20T08:07:23;94240.13;;;16.66;54.03
68179;BME280;54998;42.656;23.382;2022-11-20T08:09:48;94247.09;;;16.72;53.85
68179;BME280;54998;42.656;23.382;2022-11-20T08:12:18;94240.41;;;16.84;53.31
68179;BME280;54998;42.656;23.382;2022-11-20T08:15:04;94222.91;;;16.99;52.62
68179;BME280;54998;42.656;23.382;2022-11-20T08:17:30;94221.22;;;17.40;51.15
68179;BME280;54998;42.656;23.382;2022-11-20T08:19:55;94225.22;;;17.62;50.50
68179;BME280;54998;42.656;23.382;2022-11-20T08:22:21;94225.81;;;17.71;50.18
68179;BME280;54998;42.656;23.382;2022-11-20T08:24:46;94225.03;;;17.51;50.71
68179;BME280;54998;42.656;23.382;2022-11-20T08:27:13;94209.44;;;17.37;50.63
68179;BME280;54998;42.656;23.382;2022-11-20T08:29:38;94217.78;;;17.26;51.12
68179;BME280;54998;42.656;23.382;2022-11-20T08:32:03;94228.41;;;17.38;50.48
68179;BME280;54998;42.656;23.382;2022-11-20T08:34:29;94240.97;;;17.41;50.09
68179;BME280;54998;42.656;23.382;2022-11-20T08:36:54;94238.16;;;17.36;50.24
68179;BME280;54998;42.656;23.382;2022-11-20T08:39:20;94239.56;;;17.32;50.55
68179;BME280;54998;42.656;23.382;2022-11-20T08:41:45;94229.78;;;17.34;50.22
68179;BME280;54998;42.656;23.382;2022-11-20T08:44:10;94230.75;;;17.26;50.55
68179;BME280;54998;42.656;23.382;2022-11-20T08:46:38;94236.03;;;16.91;51.04
68179;BME280;54998;42.656;23.382;2022-11-20T08:49:05;94246.25;;;17.06;51.02
68179;BME280;54998;42.656;23.382;2022-11-20T08:51:31;94256.25;;;17.02;51.41
68179;BME280;54998;42.656;23.382;2022-11-20T08:53:57;94277.59;;;17.04;51.42
68179;BME280;54998;42.656;23.382;2022-11-20T08:56:22;94280.69;;;16.93;52.16
68179;BME280;54998;42.656;23.382;2022-11-20T08:58:49;94284.31;;;16.92;52.77
68179;BME280;54998;42.656;23.382;2022-11-20T09:01:15;94272.69;;;16.81;53.48
68179;BME280;54998;42.656;23.382;2022-11-20T09:03:40;94275.53;;;16.93;53.23
68179;BME280;54998;42.656;23.382;2022-11-20T09:06:07;94276.72;;;16.91;53.15
68179;BME280;54998;42.656;23.382;2022-11-20T09:08:33;94272.56;;;16.96;53.28
68179;BME280;54998;42.656;23.382;2022-11-20T09:10:59;94270.91;;;16.89;53.71
68179;BME280;54998;42.656;23.382;2022-11-20T09:13:26;94276.50;;;16.86;54.48
68179;BME280;54998;42.656;23.382;2022-11-20T09:15:54;94273.22;;;16.70;55.47
68179;BME280;54998;42.656;23.382;2022-11-20T09:18:20;94284.19;;;16.37;56.82
68179;BME280;54998;42.656;23.382;2022-11-20T09:20:45;94273.44;;;16.12;59.54
68179;BME280;54998;42.656;23.382;2022-11-20T09:23:11;94264.09;;;16.11;59.93
68179;BME280;54998;42.656;23.382;2022-11-20T09:25:36;94271.56;;;15.99;61.03
68179;BME280;54998;42.656;23.382;2022-11-20T09:28:02;94278.72;;;15.76;62.05
68179;BME280;54998;42.656;23.382;2022-11-20T09:30:27;94274.47;;;15.68;60.75
68179;BME280;54998;42.656;23.382;2022-11-20T09:32:52;94259.50;;;15.42;61.31
68179;BME280;54998;42.656;23.382;2022-11-20T09:35:18;94259.09;;;15.24;60.76
68179;BME280;54998;42.656;23.382;2022-11-20T09:37:44;94271.88;;;15.10;61.99
68179;BME280;54998;42.656;23.382;2022-11-20T09:40:29;94252.88;;;14.96;62.83
68179;BME280;54998;42.656;23.382;2022-11-20T09:43:01;94250.56;;;14.87;63.15
68179;BME280;54998;42.656;23.382;2022-11-20T09:45:47;94249.91;;;14.99;62.89
68179;BME280;54998;42.656;23.382;2022-11-20T09:56:10;94239.97;;;15.18;64.06
68179;BME280;54998;42.656;23.382;2022-11-20T09:58:45;94246.63;;;15.27;63.57
68179;BME280;54998;42.656;23.382;2022-11-20T10:01:20;94258.19;;;15.31;62.90
68179;BME280;54998;42.656;23.382;2022-11-20T10:06:17;94214.28;;;14.95;62.34
68179;BME280;54998;42.656;23.382;2022-11-20T10:08:55;94202.72;;;14.91;62.56
68179;BME280;54998;42.656;23.382;2022-11-20T10:14:26;94216.22;;;15.08;61.77
68179;BME280;54998;42.656;23.382;2022-11-20T10:25:15;94207.53;;;15.15;62.82
68179;BME280;54998;42.656;23.382;2022-11-20T10:28:36;94191.59;;;15.33;62.79
68179;BME280;54998;42.656;23.382;2022-11-20T10:30:57;94194.66;;;15.22;63.63
68179;BME280;54998;42.656;23.382;2022-11-20T10:33:27;94204.31;;;15.13;64.42
68179;BME280;54998;42.656;23.382;2022-11-20T10:38:43;94200.31;;;15.11;65.18
68179;BME280;54998;42.656;23.382;2022-11-20T10:41:17;94210.38;;;15.20;65.24
68179;BME280;54998;42.656;23.382;2022-11-20T10:43:57;94216.94;;;15.23;65.38
68179;BME280;54998;42.656;23.382;2022-11-20T10:46:25;94207.41;;;15.24;65.39
68179;BME280;54998;42.656;23.382;2022-11-20T10:48:56;94207.41;;;15.24;64.43
68179;BME280;54998;42.656;23.382;2022-11-20T10:51:35;94217.47;;;15.33;63.80
68179;BME280;54998;42.656;23.382;2022-11-20T11:00:09;94257.72;;;15.06;66.42
68179;BME280;54998;42.656;23.382;2022-11-20T11:02:39;94239.25;;;14.88;67.52
68179;BME280;54998;42.656;23.382;2022-11-20T11:05:17;94218.22;;;14.91;68.30
68179;BME280;54998;42.656;23.382;2022-11-20T11:07:53;94249.47;;;14.81;68.67
68179;BME280;54998;42.656;23.382;2022-11-20T11:13:20;94266.50;;;14.75;69.95
68179;BME280;54998;42.656;23.382;2022-11-20T11:15:45;94278.97;;;14.72;70.41
68179;BME280;54998;42.656;23.382;2022-11-20T11:18:11;94286.81;;;14.78;71.95
68179;BME280;54998;42.656;23.382;2022-11-20T11:20:37;94302.81;;;14.29;73.77
68179;BME280;54998;42.656;23.382;2022-11-20T11:23:03;94303.34;;;13.64;76.19
68179;BME280;54998;42.656;23.382;2022-11-20T11:25:31;94302.38;;;13.02;77.53
68179;BME280;54998;42.656;23.382;2022-11-20T11:28:19;94283.31;;;12.88;76.72
68179;BME280;54998;42.656;23.382;2022-11-20T11:30:45;94255.50;;;12.84;76.92
68179;BME280;54998;42.656;23.382;2022-11-20T11:33:19;94265.56;;;12.62;75.74
68179;BME280;54998;42.656;23.382;2022-11-20T11:35:50;94268.28;;;12.61;69.97
68179;BME280;54998;42.656;23.382;2022-11-20T11:38:21;94287.22;;;12.76;68.31
68179;BME280;54998;42.656;23.382;2022-11-20T11:40:48;94307.06;;;12.51;69.68
68179;BME280;54998;42.656;23.382;2022-11-20T11:43:19;94299.97;;;12.61;67.25
68179;BME280;54998;42.656;23.382;2022-11-20T11:49:15;94306.03;;;11.80;69.98
68179;BME280;54998;42.656;23.382;2022-11-20T11:54:38;94285.88;;;11.18;76.19
68179;BME280;54998;42.656;23.382;2022-11-20T11:57:16;94302.72;;;11.04;78.69
68179;BME280;54998;42.656;23.382;2022-11-20T12:00:12;94289.84;;;10.96;78.87
68179;BME280;54998;42.656;23.382;2022-11-20T12:11:11;94248.34;;;11.41;74.24
68179;BME280;54998;42.656;23.382;2022-11-20T12:13:44;94262.16;;;11.32;78.19
68179;BME280;54998;42.656;23.382;2022-11-20T12:16:14;94280.97;;;11.65;74.95
68179;BME280;54998;42.656;23.382;2022-11-20T12:18:41;94228.91;;;11.63;72.20
68179;BME280;54998;42.656;23.382;2022-11-20T12:37:22;94288.03;;;11.71;70.22
68179;BME280;54998;42.656;23.382;2022-11-20T12:39:52;94257.97;;;11.56;72.63
68179;BME280;54998;42.656;23.382;2022-11-20T12:45:52;94180.13;;;11.30;73.45
68179;BME280;54998;42.656;23.382;2022-11-20T13:01:37;94181.56;;;12.30;64.50
68179;BME280;54998;42.656;23.382;2022-11-20T13:06:43;94174.34;;;12.57;65.45
68179;BME280;54998;42.656;23.382;2022-11-20T13:09:12;94158.63;;;12.51;65.94
68179;BME280;54998;42.656;23.382;2022-11-20T13:12:05;94145.38;;;12.63;66.40
68179;BME280;54998;42.656;23.382;2022-11-20T13:14:57;94137.66;;;12.86;66.21
68179;BME280;54998;42.656;23.382;2022-11-20T13:17:48;94137.94;;;13.14;65.48
68179;BME280;54998;42.656;23.382;2022-11-20T13:20:15;94176.75;;;13.12;65.33
68179;BME280;54998;42.656;23.382;2022-11-20T13:22:50;94183.38;;;13.07;68.14
68179;BME280;54998;42.656;23.382;2022-11-20T13:25:26;94198.69;;;12.77;68.47
68179;BME280;54998;42.656;23.382;2022-11-20T13:27:53;94185.19;;;12.75;68.27
68179;BME280;54998;42.656;23.382;2022-11-20T13:30:21;94156.94;;;12.67;67.69
68179;BME280;54998;42.656;23.382;2022-11-20T13:32:49;94196.88;;;12.54;69.03
68179;BME280;54998;42.656;23.382;2022-11-20T13:35:24;94246.94;;;12.52;69.46
68179;BME280;54998;42.656;23.382;2022-11-20T13:37:59;94211.84;;;12.51;69.88
68179;BME280;54998;42.656;23.382;2022-11-20T13:40:26;94173.00;;;12.29;70.85
68179;BME280;54998;42.656;23.382;2022-11-20T13:42:56;94199.44;;;12.23;71.33
68179;BME280;54998;42.656;23.382;2022-11-20T13:45:28;94223.66;;;12.37;71.01
68179;BME280;54998;42.656;23.382;2022-11-20T13:47:55;94230.38;;;12.46;70.51
68179;BME280;54998;42.656;23.382;2022-11-20T14:00:44;94240.06;;;12.36;72.21
68179;BME280;54998;42.656;23.382;2022-11-20T14:03:18;94245.81;;;12.38;71.82
68179;BME280;54998;42.656;23.382;2022-11-20T14:05:55;94240.84;;;12.45;72.25
68179;BME280;54998;42.656;23.382;2022-11-20T14:08:37;94232.81;;;12.40;72.76
68179;BME280;54998;42.656;23.382;2022-11-20T14:16:26;94197.72;;;12.47;72.64
68179;BME280;54998;42.656;23.382;2022-11-20T14:18:53;94199.22;;;12.33;73.13
68179;BME280;54998;42.656;23.382;2022-11-20T14:21:37;94211.41;;;12.39;73.56
68179;BME280;54998;42.656;23.382;2022-11-20T14:24:04;94218.28;;;12.47;73.37
68179;BME280;54998;42.656;23.382;2022-11-20T14:26:30;94207.97;;;12.55;73.03
68179;BME280;54998;42.656;23.382;2022-11-20T14:28:55;94213.50;;;12.44;72.96
68179;BME280;54998;42.656;23.382;2022-11-20T14:31:23;94217.22;;;12.41;73.38
68179;BME280;54998;42.656;23.382;2022-11-20T14:33:52;94222.50;;;12.40;73.29
68179;BME280;54998;42.656;23.382;2022-11-20T14:36:20;94217.50;;;12.46;72.96
68179;BME280;54998;42.656;23.382;2022-11-20T14:38:46;94236.22;;;12.32;74.04
68179;BME280;54998;42.656;23.382;2022-11-20T14:41:20;94220.28;;;12.37;74.50
68179;BME280;54998;42.656;23.382;2022-11-20T14:43:57;94228.84;;;12.21;75.49
68179;BME280;54998;42.656;23.382;2022-11-20T14:46:23;94228.69;;;12.22;75.44